createdAt,value
2023-03-05T00:07:48.519Z,-2.32
2023-03-05T00:22:51.887Z,-2.50
2023-03-05T00:37:54.581Z,-2.60
2023-03-05T00:52:57.361Z,-2.61
2023-03-05T01:07:59.855Z,-2.54
2023-03-05T01:23:02.542Z,-2.15
2023-03-05T01:38:05.472Z,-2.17
2023-03-05T01:53:08.624Z,-2.37
2023-03-05T02:08:16.207Z,-2.56
2023-03-05T02:23:21.798Z,-2.75
2023-03-05T02:38:24.667Z,-2.79
2023-03-05T02:53:27.256Z,-2.41
2023-03-05T03:08:29.778Z,-1.76
2023-03-05T03:23:33.858Z,-1.60
2023-03-05T03:38:36.303Z,-1.63
2023-03-05T03:53:54.469Z,-1.62
2023-03-05T04:08:56.894Z,-1.48
2023-03-05T04:23:59.358Z,-1.01
2023-03-05T04:39:01.828Z,-0.95
2023-03-05T04:54:04.568Z,-1.10
2023-03-05T05:09:07.020Z,-0.95
2023-03-05T05:24:09.717Z,-0.55
2023-03-05T05:39:12.159Z,-0.63
2023-03-05T05:54:15.685Z,-0.77
2023-03-05T06:24:36.507Z,-0.38
2023-03-05T06:39:54.026Z,-0.41
2023-03-05T06:54:56.693Z,-0.35
2023-03-05T07:09:59.209Z,-0.34
2023-03-05T07:25:02.228Z,-0.10
2023-03-05T07:40:06.620Z,0.24
2023-03-05T07:55:11.131Z,0.13
2023-03-05T08:10:17.255Z,-0.12
2023-03-05T08:25:20.663Z,-0.15
2023-03-05T08:40:23.648Z,-0.01
2023-03-05T08:55:26.535Z,0.17
2023-03-05T09:10:30.025Z,0.61
2023-03-05T09:25:33.040Z,0.96
2023-03-05T09:41:06.831Z,1.04
2023-03-05T09:56:42.041Z,1.37
2023-03-05T10:12:00.783Z,1.55
2023-03-05T10:27:18.402Z,1.72
2023-03-05T10:42:31.205Z,2.31
2023-03-05T10:57:34.431Z,2.81
2023-03-05T11:12:39.130Z,2.89
2023-03-05T11:28:02.976Z,2.58
2023-03-05T11:43:06.090Z,2.26
2023-03-05T11:58:40.279Z,1.90
2023-03-05T12:13:53.454Z,1.63
2023-03-05T12:28:58.344Z,1.50
2023-03-05T12:44:20.278Z,1.60
2023-03-05T12:59:48.500Z,1.47
2023-03-05T13:15:15.789Z,1.53
2023-03-05T13:30:26.603Z,1.51
2023-03-05T13:45:31.783Z,1.63
2023-03-05T14:01:02.344Z,1.79
2023-03-05T14:16:23.162Z,1.88
2023-03-05T14:31:30.048Z,1.91
2023-03-05T14:46:32.995Z,1.95
2023-03-05T15:01:36.011Z,1.97
2023-03-05T15:16:45.180Z,1.91
2023-03-05T15:32:04.980Z,1.78
2023-03-05T15:47:08.450Z,1.91
2023-03-05T16:02:11.451Z,1.91
2023-03-05T16:17:16.338Z,1.66
2023-03-05T16:32:19.542Z,1.49
2023-03-05T16:47:22.553Z,1.60
2023-03-05T17:02:25.720Z,1.20
2023-03-05T17:17:28.866Z,0.84
2023-03-05T17:32:34.383Z,0.64
2023-03-05T17:47:38.118Z,0.89
2023-03-05T18:02:41.073Z,1.03
2023-03-05T18:17:44.732Z,0.83
2023-03-05T18:33:03.814Z,0.58
2023-03-05T18:48:08.130Z,0.41
2023-03-05T19:03:12.917Z,0.32
2023-03-05T19:18:18.027Z,0.25
2023-03-05T19:33:21.174Z,0.17
2023-03-05T19:48:24.176Z,0.04
2023-03-05T20:03:28.221Z,0.21
2023-03-05T20:18:31.736Z,0.30
2023-03-05T20:33:34.728Z,0.12
2023-03-05T20:48:37.370Z,-0.14
2023-03-05T21:03:41.691Z,-0.45
2023-03-05T21:18:50.913Z,-0.69
2023-03-05T21:33:54.890Z,-0.80
2023-03-05T21:48:57.511Z,-0.60
2023-03-05T22:04:15.174Z,-0.67
2023-03-05T22:19:21.504Z,-0.85
2023-03-05T22:34:24.483Z,-1.10
2023-03-05T22:49:27.251Z,-1.33
2023-03-05T23:04:59.933Z,-1.45
2023-03-05T23:20:20.812Z,-1.28
2023-03-05T23:51:30.405Z,-1.34
